createdAt,value
2018-04-08T00:02:16.253Z,6.83
2018-04-08T00:04:50.896Z,6.90
2018-04-08T00:07:25.580Z,6.00
2018-04-08T00:10:00.125Z,6.80
2018-04-08T00:12:34.733Z,7.33
2018-04-08T00:15:09.499Z,6.90
2018-04-08T00:17:44.200Z,7.17
2018-04-08T00:20:18.879Z,6.47
2018-04-08T00:22:53.519Z,7.20
2018-04-08T00:25:28.064Z,7.30
2018-04-08T00:28:02.700Z,6.80
2018-04-08T00:30:37.375Z,6.37
2018-04-08T00:33:12.026Z,6.53
2018-04-08T00:35:46.718Z,6.70
2018-04-08T00:38:21.606Z,7.47
2018-04-08T00:40:56.239Z,6.20
2018-04-08T00:43:30.960Z,6.80
2018-04-08T00:46:05.907Z,8.50
2018-04-08T00:48:40.999Z,6.90
2018-04-08T00:51:16.426Z,6.37
2018-04-08T00:54:02.218Z,6.60
2018-04-08T00:56:36.423Z,6.63
2018-04-08T00:59:10.992Z,6.80
2018-04-08T01:01:46.515Z,7.07
2018-04-08T01:04:21.069Z,7.23
2018-04-08T01:06:56.492Z,6.50
2018-04-08T01:09:31.223Z,6.30
2018-04-08T01:12:05.943Z,7.10
2018-04-08T01:14:40.487Z,6.93
2018-04-08T01:17:14.981Z,6.20
2018-04-08T01:19:49.715Z,7.00
2018-04-08T01:22:24.232Z,7.00
2018-04-08T01:24:59.008Z,6.80
2018-04-08T01:27:33.892Z,6.33
2018-04-08T01:30:08.699Z,7.20
2018-04-08T01:32:43.264Z,7.07
2018-04-08T01:35:17.654Z,6.80
2018-04-08T01:37:52.395Z,7.03
2018-04-08T01:40:27.281Z,7.00
2018-04-08T01:43:01.840Z,6.50
2018-04-08T01:45:38.028Z,7.40
2018-04-08T01:48:12.802Z,8.10
2018-04-08T01:50:48.389Z,7.70
2018-04-08T01:53:23.028Z,7.50
2018-04-08T01:55:57.657Z,6.87
2018-04-08T01:58:32.285Z,7.50
2018-04-08T02:01:06.868Z,7.20
2018-04-08T02:03:41.318Z,7.30
2018-04-08T02:06:16.812Z,6.70
2018-04-08T02:08:52.254Z,6.60
2018-04-08T02:11:26.895Z,8.20
2018-04-08T02:14:02.267Z,7.33
2018-04-08T02:16:36.958Z,7.60
2018-04-08T02:19:11.729Z,7.47
2018-04-08T02:21:46.475Z,7.80
2018-04-08T02:24:21.132Z,7.80
2018-04-08T02:26:56.622Z,6.90
2018-04-08T02:29:31.855Z,7.47
2018-04-08T02:32:06.389Z,8.10
2018-04-08T02:34:40.975Z,7.63
2018-04-08T02:37:16.519Z,7.43
2018-04-08T02:39:51.138Z,8.20
2018-04-08T02:42:26.608Z,7.80
2018-04-08T02:45:01.339Z,7.70
2018-04-08T02:47:36.227Z,7.20
2018-04-08T02:50:10.922Z,7.67
2018-04-08T02:52:45.645Z,6.93
2018-04-08T02:55:20.175Z,8.00
2018-04-08T02:57:54.932Z,8.00
2018-04-08T03:00:30.434Z,7.77
2018-04-08T03:03:05.162Z,7.97
2018-04-08T03:05:39.785Z,8.10
2018-04-08T03:08:14.372Z,7.97
2018-04-08T03:10:48.993Z,8.10
2018-04-08T03:13:23.783Z,7.83
2018-04-08T03:15:58.276Z,8.07
2018-04-08T03:18:33.626Z,7.30
2018-04-08T03:21:08.527Z,7.90
2018-04-08T03:23:43.292Z,8.10
2018-04-08T03:26:17.898Z,7.90
2018-04-08T03:28:52.757Z,8.00
2018-04-08T03:31:27.539Z,8.00
2018-04-08T03:34:02.446Z,8.27
2018-04-08T03:36:36.979Z,8.13
2018-04-08T03:39:11.665Z,7.40
2018-04-08T03:41:46.255Z,7.90
2018-04-08T03:44:21.010Z,7.70
2018-04-08T03:46:55.621Z,8.30
2018-04-08T03:49:30.540Z,8.40
2018-04-08T03:52:04.910Z,7.70
2018-04-08T03:54:40.119Z,8.70
2018-04-08T03:57:14.507Z,8.70
2018-04-08T03:59:48.919Z,7.90
2018-04-08T04:02:23.388Z,7.80
2018-04-08T04:04:57.848Z,8.53
2018-04-08T04:07:32.290Z,7.63
2018-04-08T04:10:06.854Z,7.70
2018-04-08T04:12:41.940Z,8.20
2018-04-08T04:15:17.170Z,8.30
2018-04-08T04:17:51.835Z,8.50
2018-04-08T04:20:37.935Z,7.40
2018-04-08T04:23:23.953Z,8.00
2018-04-08T04:28:59.075Z,7.63
2018-04-08T04:31:33.602Z,7.90
2018-04-08T04:34:09.136Z,9.30
2018-04-08T04:36:43.845Z,7.97
2018-04-08T04:39:18.500Z,8.43
2018-04-08T04:41:53.314Z,8.70
2018-04-08T04:44:28.908Z,8.90
2018-04-08T04:47:03.733Z,8.63
2018-04-08T04:49:39.111Z,7.77
2018-04-08T04:52:13.978Z,8.07
2018-04-08T04:54:48.702Z,9.20
2018-04-08T04:57:23.403Z,8.60
2018-04-08T04:59:57.926Z,8.13
2018-04-08T05:02:34.195Z,7.93
2018-04-08T05:05:08.828Z,8.47
2018-04-08T05:07:43.472Z,8.67
2018-04-08T05:10:18.055Z,8.73
2018-04-08T05:12:52.854Z,8.57
2018-04-08T05:15:28.473Z,8.43
2018-04-08T05:18:03.074Z,8.57
2018-04-08T05:20:37.796Z,8.63
2018-04-08T05:23:12.447Z,8.87
2018-04-08T05:25:48.082Z,8.00
2018-04-08T05:28:22.857Z,9.10
2018-04-08T05:30:57.534Z,9.00
2018-04-08T05:33:32.980Z,8.70
2018-04-08T05:36:07.658Z,8.63
2018-04-08T05:38:42.341Z,8.50
2018-04-08T05:41:16.940Z,8.97
2018-04-08T05:43:51.667Z,8.70
2018-04-08T05:46:26.317Z,8.67
2018-04-08T05:49:01.043Z,8.70
2018-04-08T05:51:35.657Z,8.93
2018-04-08T05:54:10.384Z,8.63
2018-04-08T05:56:45.110Z,7.77
2018-04-08T05:59:20.018Z,8.67
2018-04-08T06:01:54.484Z,8.73
2018-04-08T06:04:29.827Z,8.70
2018-04-08T06:07:04.329Z,7.70
2018-04-08T06:09:39.994Z,8.93
2018-04-08T06:12:14.687Z,8.90
2018-04-08T06:14:49.536Z,8.80
2018-04-08T06:17:24.039Z,9.53
2018-04-08T06:19:59.481Z,9.00
2018-04-08T06:22:34.022Z,8.80
2018-04-08T06:25:08.335Z,10.30
2018-04-08T06:27:43.119Z,9.23
2018-04-08T06:30:18.097Z,9.50
2018-04-08T06:32:53.141Z,9.53
2018-04-08T06:35:27.709Z,10.13
2018-04-08T06:38:02.968Z,9.33
2018-04-08T06:40:38.374Z,9.43
2018-04-08T06:43:12.846Z,9.50
2018-04-08T06:45:47.475Z,9.97
2018-04-08T06:48:21.810Z,9.67
2018-04-08T06:50:56.231Z,10.20
2018-04-08T06:53:30.866Z,9.63
2018-04-08T06:56:06.520Z,10.37
2018-04-08T06:58:41.407Z,10.10
2018-04-08T07:01:17.060Z,9.30
2018-04-08T07:03:52.066Z,10.90
2018-04-08T07:06:26.625Z,10.53
2018-04-08T07:09:01.270Z,10.53
2018-04-08T07:11:35.852Z,10.20
2018-04-08T07:14:10.492Z,10.77
2018-04-08T07:16:46.472Z,10.17
2018-04-08T07:19:21.855Z,11.20
2018-04-08T07:21:56.349Z,10.60
2018-04-08T07:24:31.008Z,11.10
2018-04-08T07:27:05.993Z,11.50
2018-04-08T07:29:40.396Z,11.40
2018-04-08T07:32:15.046Z,12.53
2018-04-08T07:34:49.863Z,12.43
2018-04-08T07:37:24.471Z,11.60
2018-04-08T07:39:59.244Z,11.87
2018-04-08T07:42:33.823Z,10.80
2018-04-08T07:45:09.163Z,10.47
2018-04-08T07:47:43.918Z,10.50
2018-04-08T07:50:18.659Z,10.20
2018-04-08T07:52:53.251Z,11.13
2018-04-08T07:55:27.889Z,9.87
2018-04-08T07:58:02.511Z,11.13
2018-04-08T08:00:37.224Z,10.70
2018-04-08T08:03:12.122Z,9.80
2018-04-08T08:05:46.791Z,10.43
2018-04-08T08:08:22.041Z,10.57
2018-04-08T08:10:56.772Z,11.23
2018-04-08T08:13:31.626Z,11.53
2018-04-08T08:16:06.419Z,10.27
2018-04-08T08:18:42.063Z,11.60
2018-04-08T08:21:16.810Z,11.47
2018-04-08T08:23:51.522Z,11.40
2018-04-08T08:26:26.156Z,11.23
2018-04-08T08:29:01.017Z,11.47
2018-04-08T08:31:35.798Z,10.83
2018-04-08T08:34:11.464Z,11.20
2018-04-08T08:36:46.091Z,10.60
2018-04-08T08:39:20.868Z,11.30
2018-04-08T08:41:55.553Z,11.17
2018-04-08T08:44:30.276Z,10.70
2018-04-08T08:47:04.853Z,11.03
2018-04-08T08:49:39.497Z,12.03
2018-04-08T08:52:15.066Z,11.40
2018-04-08T08:54:49.799Z,11.83
2018-04-08T08:57:24.691Z,12.10
2018-04-08T09:00:00.133Z,11.70
2018-04-08T09:02:34.799Z,12.70
2018-04-08T09:05:09.143Z,12.53
2018-04-08T09:07:43.835Z,13.47
2018-04-08T09:10:19.223Z,12.40
2018-04-08T09:12:54.077Z,12.53
2018-04-08T09:15:28.438Z,12.67
2018-04-08T09:18:02.856Z,13.03
2018-04-08T09:20:52.826Z,13.30
2018-04-08T09:23:42.078Z,12.70
2018-04-08T09:26:17.291Z,11.77
2018-04-08T09:28:52.043Z,12.20
2018-04-08T09:31:27.014Z,11.77
2018-04-08T09:34:01.433Z,10.97
2018-04-08T09:36:36.946Z,10.83
2018-04-08T09:39:11.711Z,10.63
2018-04-08T09:41:46.283Z,12.67
2018-04-08T09:44:21.047Z,11.00
2018-04-08T09:46:56.283Z,10.87
2018-04-08T09:49:31.807Z,8.73
2018-04-08T09:52:06.577Z,11.03
2018-04-08T09:54:41.134Z,8.30
2018-04-08T09:57:15.478Z,7.30
2018-04-08T09:59:49.809Z,8.60
2018-04-08T10:02:36.550Z,11.40
2018-04-08T10:05:11.264Z,13.27
2018-04-08T10:07:45.613Z,9.53
2018-04-08T10:10:20.335Z,10.73
2018-04-08T10:12:55.142Z,11.27
2018-04-08T10:15:30.082Z,10.33
2018-04-08T10:18:04.748Z,10.43
2018-04-08T10:20:39.554Z,15.03
2018-04-08T10:23:14.157Z,10.93
2018-04-08T10:25:49.006Z,9.70
2018-04-08T10:28:23.767Z,7.17
2018-04-08T10:30:58.365Z,10.20
2018-04-08T10:33:33.080Z,8.40
2018-04-08T10:36:07.770Z,13.73
2018-04-08T10:38:42.577Z,12.13
2018-04-08T10:41:18.024Z,8.40
2018-04-08T10:43:52.975Z,10.77
2018-04-08T10:46:28.493Z,12.40
2018-04-08T10:49:04.035Z,10.00
2018-04-08T10:51:38.552Z,9.03
2018-04-08T10:54:13.612Z,11.83
2018-04-08T10:56:48.286Z,10.10
2018-04-08T10:59:22.973Z,11.60
2018-04-08T11:01:58.335Z,11.43
2018-04-08T11:04:32.897Z,10.97
2018-04-08T11:07:07.500Z,12.70
2018-04-08T11:09:42.168Z,12.17
2018-04-08T11:12:16.543Z,12.13
2018-04-08T11:14:51.076Z,9.27
2018-04-08T11:17:25.861Z,10.07
2018-04-08T11:20:00.456Z,10.87
2018-04-08T11:22:35.237Z,12.07
2018-04-08T11:25:09.751Z,12.50
2018-04-08T11:27:44.592Z,9.80
2018-04-08T11:30:19.188Z,12.30
2018-04-08T11:32:53.793Z,8.73
2018-04-08T11:35:28.540Z,6.60
2018-04-08T11:38:03.168Z,7.63
2018-04-08T11:40:37.810Z,8.70
2018-04-08T11:43:12.414Z,12.40
2018-04-08T11:45:47.172Z,12.47
2018-04-08T11:48:22.657Z,10.30
2018-04-08T11:50:57.302Z,11.07
2018-04-08T11:53:32.107Z,12.07
2018-04-08T11:56:06.767Z,9.87
2018-04-08T11:58:41.172Z,7.10
2018-04-08T12:01:15.761Z,9.00
2018-04-08T12:03:51.091Z,10.90
2018-04-08T12:06:26.002Z,11.80
2018-04-08T12:09:01.223Z,11.27
2018-04-08T12:11:36.736Z,10.20
2018-04-08T12:14:12.082Z,8.73
2018-04-08T12:16:46.856Z,7.33
2018-04-08T12:19:21.293Z,10.80
2018-04-08T12:21:55.631Z,9.93
2018-04-08T12:24:30.253Z,11.20
2018-04-08T12:27:06.374Z,10.40
2018-04-08T12:29:41.551Z,14.20
2018-04-08T12:32:16.251Z,11.07
2018-04-08T12:34:50.777Z,11.60
2018-04-08T12:37:25.324Z,12.47
2018-04-08T12:40:00.361Z,11.83
2018-04-08T12:42:35.185Z,9.63
2018-04-08T12:45:09.836Z,9.60
2018-04-08T12:47:44.438Z,9.73
2018-04-08T12:50:19.087Z,9.83
2018-04-08T12:52:53.715Z,10.87
2018-04-08T12:55:28.337Z,7.00
2018-04-08T12:58:03.066Z,9.07
2018-04-08T13:00:37.832Z,8.37
2018-04-08T13:03:12.178Z,10.13
2018-04-08T13:05:46.862Z,10.17
2018-04-08T13:08:21.442Z,10.43
2018-04-08T13:10:56.220Z,7.60
2018-04-08T13:13:30.738Z,9.00
2018-04-08T13:16:05.059Z,8.10
2018-04-08T13:18:39.454Z,8.40
2018-04-08T13:21:13.767Z,8.87
2018-04-08T13:23:48.363Z,8.43
2018-04-08T13:26:23.087Z,9.37
2018-04-08T13:28:57.756Z,11.57
2018-04-08T13:31:33.371Z,10.33
2018-04-08T13:34:07.963Z,8.67
2018-04-08T13:36:42.574Z,9.13
2018-04-08T13:39:17.083Z,9.67
2018-04-08T13:41:51.668Z,9.57
2018-04-08T13:44:26.752Z,11.40
2018-04-08T13:47:01.386Z,10.00
2018-04-08T13:49:36.079Z,7.80
2018-04-08T13:52:10.699Z,10.13
2018-04-08T13:54:45.466Z,9.80
2018-04-08T13:57:19.913Z,8.33
2018-04-08T13:59:54.821Z,8.20
2018-04-08T14:02:29.493Z,8.57
2018-04-08T14:05:03.933Z,9.67
2018-04-08T14:07:38.535Z,10.93
2018-04-08T14:10:13.151Z,9.20
2018-04-08T14:12:47.494Z,8.53
2018-04-08T14:15:22.223Z,9.33
2018-04-08T14:17:58.418Z,10.10
2018-04-08T14:20:33.920Z,10.13
2018-04-08T14:23:08.743Z,9.83
2018-04-08T14:25:43.447Z,10.27
2018-04-08T14:28:18.183Z,10.50
2018-04-08T14:30:52.986Z,9.37
2018-04-08T14:33:27.566Z,9.17
2018-04-08T14:36:01.992Z,10.77
2018-04-08T14:38:36.309Z,9.60
2018-04-08T14:41:11.002Z,8.90
2018-04-08T14:43:45.748Z,9.40
2018-04-08T14:46:20.464Z,8.27
2018-04-08T14:48:55.048Z,8.00
2018-04-08T14:51:30.445Z,8.23
2018-04-08T14:54:05.239Z,8.53
2018-04-08T14:56:39.958Z,7.97
2018-04-08T14:59:14.438Z,8.80
2018-04-08T15:01:49.182Z,9.10
2018-04-08T15:04:23.752Z,9.67
2018-04-08T15:06:58.247Z,8.20
2018-04-08T15:09:32.900Z,7.00
2018-04-08T15:12:08.317Z,8.07
2018-04-08T15:14:42.770Z,7.50
2018-04-08T15:17:18.011Z,8.10
2018-04-08T15:19:52.814Z,7.93
2018-04-08T15:22:28.336Z,6.70
2018-04-08T15:25:03.632Z,7.17
2018-04-08T15:27:38.431Z,7.33
2018-04-08T15:30:13.035Z,8.33
2018-04-08T15:32:47.472Z,8.60
2018-04-08T15:35:22.218Z,7.63
2018-04-08T15:37:57.041Z,8.77
2018-04-08T15:40:31.698Z,7.40
2018-04-08T15:43:06.191Z,9.10
2018-04-08T15:45:40.792Z,7.60
2018-04-08T15:48:15.200Z,7.60
2018-04-08T15:50:50.366Z,8.23
2018-04-08T15:53:25.164Z,7.83
2018-04-08T15:55:59.894Z,9.13
2018-04-08T15:58:34.574Z,8.27
2018-04-08T16:01:09.382Z,7.83
2018-04-08T16:03:44.883Z,8.37
2018-04-08T16:06:19.709Z,7.50
2018-04-08T16:08:54.301Z,7.43
2018-04-08T16:11:29.071Z,8.20
2018-04-08T16:14:05.004Z,7.37
2018-04-08T16:16:39.556Z,7.20
2018-04-08T16:19:14.337Z,6.80
2018-04-08T16:21:49.067Z,8.07
2018-04-08T16:24:24.698Z,8.83
2018-04-08T16:26:59.327Z,8.03
2018-04-08T16:29:34.065Z,8.27
2018-04-08T16:32:10.380Z,7.10
2018-04-08T16:34:45.744Z,7.77
2018-04-08T16:37:21.307Z,8.90
2018-04-08T16:39:56.751Z,7.77
2018-04-08T16:42:31.620Z,8.40
2018-04-08T16:45:06.903Z,7.60
2018-04-08T16:47:42.526Z,8.00
2018-04-08T16:50:18.874Z,7.97
2018-04-08T16:52:54.451Z,7.63
2018-04-08T16:55:28.976Z,8.63
2018-04-08T16:58:03.666Z,6.47
2018-04-08T17:00:38.924Z,7.97
2018-04-08T17:03:13.728Z,7.37
2018-04-08T17:05:48.680Z,7.30
2018-04-08T17:08:23.440Z,13.50
2018-04-08T17:10:58.113Z,11.23
2018-04-08T17:13:32.964Z,9.83
2018-04-08T17:16:07.822Z,8.40
2018-04-08T17:18:43.188Z,8.80
2018-04-08T17:21:17.902Z,7.90
2018-04-08T17:23:52.236Z,9.70
2018-04-08T17:26:26.663Z,7.47
2018-04-08T17:29:01.965Z,8.17
2018-04-08T17:31:36.733Z,8.00
2018-04-08T17:34:11.134Z,7.83
2018-04-08T17:36:45.716Z,8.90
2018-04-08T17:39:20.537Z,7.70
2018-04-08T17:41:58.755Z,7.90
2018-04-08T17:44:33.263Z,8.00
2018-04-08T17:47:07.709Z,8.77
2018-04-08T17:49:42.098Z,8.60
2018-04-08T17:52:16.639Z,8.23
2018-04-08T17:54:51.138Z,8.47
2018-04-08T17:57:25.811Z,7.93
2018-04-08T18:00:01.176Z,6.40
2018-04-08T18:02:36.730Z,6.63
2018-04-08T18:05:11.589Z,7.10
2018-04-08T18:07:46.468Z,7.60
2018-04-08T18:10:21.895Z,6.43
2018-04-08T18:12:56.721Z,8.60
2018-04-08T18:15:31.025Z,8.07
2018-04-08T18:18:06.488Z,7.63
2018-04-08T18:20:41.220Z,7.53
2018-04-08T18:23:16.016Z,8.53
2018-04-08T18:25:50.847Z,6.93
2018-04-08T18:28:26.329Z,6.90
2018-04-08T18:31:01.209Z,8.67
2018-04-08T18:33:35.855Z,7.30
2018-04-08T18:36:11.145Z,7.63
2018-04-08T18:38:45.767Z,8.67
2018-04-08T18:41:20.652Z,8.67
2018-04-08T18:43:56.236Z,8.23
2018-04-08T18:46:31.108Z,8.60
2018-04-08T18:49:05.899Z,9.17
2018-04-08T18:51:40.870Z,7.67
2018-04-08T18:54:15.576Z,7.53
2018-04-08T18:56:50.186Z,8.00
2018-04-08T18:59:24.856Z,8.70
2018-04-08T19:01:59.577Z,8.10
2018-04-08T19:04:34.561Z,7.43
2018-04-08T19:07:09.538Z,7.40
2018-04-08T19:09:44.320Z,7.87
2018-04-08T19:12:19.818Z,8.40
2018-04-08T19:15:00.025Z,8.07
2018-04-08T19:17:40.007Z,8.00
2018-04-08T19:20:14.414Z,7.27
2018-04-08T19:22:49.121Z,8.00
2018-04-08T19:25:24.643Z,7.60
2018-04-08T19:27:59.426Z,8.50
2018-04-08T19:30:34.889Z,8.40
2018-04-08T19:33:09.744Z,8.50
2018-04-08T19:35:44.551Z,8.27
2018-04-08T19:38:19.392Z,7.97
2018-04-08T19:40:54.396Z,7.90
2018-04-08T19:43:29.293Z,7.77
2018-04-08T19:46:03.973Z,8.87
2018-04-08T19:48:39.593Z,7.93
2018-04-08T19:51:14.328Z,7.00
2018-04-08T19:53:49.156Z,7.23
2018-04-08T19:56:24.087Z,7.80
2018-04-08T19:58:58.897Z,7.57
2018-04-08T20:01:33.938Z,8.57
2018-04-08T20:04:08.673Z,8.10
2018-04-08T20:06:43.509Z,7.73
2018-04-08T20:09:18.248Z,6.63
2018-04-08T20:11:53.485Z,7.50
2018-04-08T20:14:28.917Z,8.23
2018-04-08T20:17:04.217Z,5.90
2018-04-08T20:19:39.768Z,7.80
2018-04-08T20:22:14.797Z,7.40
2018-04-08T20:24:50.082Z,8.20
2018-04-08T20:27:24.803Z,7.30
2018-04-08T20:29:59.721Z,7.33
2018-04-08T20:32:34.364Z,6.83
2018-04-08T20:35:08.959Z,7.50
2018-04-08T20:37:43.595Z,7.10
2018-04-08T20:40:18.196Z,6.40
2018-04-08T20:42:53.112Z,7.00
2018-04-08T20:45:27.836Z,8.83
2018-04-08T20:48:03.206Z,7.20
2018-04-08T20:50:37.518Z,8.20
2018-04-08T20:53:12.100Z,7.40
2018-04-08T20:55:46.980Z,8.37
2018-04-08T20:58:21.809Z,7.23
2018-04-08T21:00:56.855Z,7.63
2018-04-08T21:03:31.748Z,7.53
2018-04-08T21:06:06.888Z,7.80
2018-04-08T21:08:42.497Z,7.50
2018-04-08T21:11:17.262Z,8.47
2018-04-08T21:13:51.854Z,7.80
2018-04-08T21:16:26.615Z,7.80
2018-04-08T21:19:02.186Z,8.43
2018-04-08T21:21:37.500Z,8.40
2018-04-08T21:24:12.005Z,9.23
2018-04-08T21:26:46.488Z,8.43
2018-04-08T21:29:21.688Z,7.90
2018-04-08T21:32:01.445Z,8.80
2018-04-08T21:34:35.952Z,8.67
2018-04-08T21:37:10.510Z,7.93
2018-04-08T21:39:45.115Z,8.47
2018-04-08T21:42:20.038Z,8.10
2018-04-08T21:44:54.445Z,8.87
2018-04-08T21:47:29.244Z,8.40
2018-04-08T21:50:03.392Z,9.50
2018-04-08T21:52:38.146Z,9.53
2018-04-08T21:55:13.254Z,9.20
2018-04-08T21:57:48.476Z,9.30
2018-04-08T22:00:23.423Z,9.50
2018-04-08T22:02:58.220Z,8.30
2018-04-08T22:05:33.179Z,8.93
2018-04-08T22:08:07.729Z,9.67
2018-04-08T22:10:42.459Z,9.27
2018-04-08T22:13:17.384Z,9.40
2018-04-08T22:15:52.400Z,9.63
2018-04-08T22:18:27.192Z,10.30
2018-04-08T22:21:01.913Z,10.00
2018-04-08T22:23:37.663Z,9.97
2018-04-08T22:26:12.487Z,10.10
2018-04-08T22:28:48.296Z,8.90
2018-04-08T22:31:23.055Z,9.70
2018-04-08T22:33:58.566Z,9.53
2018-04-08T22:36:33.649Z,9.80
2018-04-08T22:39:07.895Z,10.07
2018-04-08T22:41:42.685Z,9.83
2018-04-08T22:44:17.567Z,10.30
2018-04-08T22:46:52.409Z,10.10
2018-04-08T22:49:27.288Z,9.90
2018-04-08T22:52:02.020Z,10.67
2018-04-08T22:54:36.765Z,10.10
2018-04-08T22:57:11.834Z,10.10
2018-04-08T22:59:46.628Z,10.33
2018-04-08T23:02:21.395Z,9.37
2018-04-08T23:04:55.781Z,10.20
2018-04-08T23:07:31.349Z,8.67
2018-04-08T23:10:06.482Z,8.73
2018-04-08T23:12:42.036Z,8.73
2018-04-08T23:15:17.045Z,10.00
2018-04-08T23:17:51.742Z,11.07
2018-04-08T23:20:26.601Z,9.87
2018-04-08T23:23:01.524Z,9.67
2018-04-08T23:25:36.549Z,10.37
2018-04-08T23:28:11.364Z,10.40
2018-04-08T23:30:46.857Z,9.80
2018-04-08T23:33:22.712Z,10.03
2018-04-08T23:35:57.629Z,9.83
2018-04-08T23:38:32.296Z,9.30
2018-04-08T23:41:07.101Z,9.50
2018-04-08T23:43:41.765Z,9.80
2018-04-08T23:46:17.238Z,9.20
2018-04-08T23:48:53.673Z,9.13
2018-04-08T23:51:28.570Z,9.47
2018-04-08T23:54:03.400Z,9.23
2018-04-08T23:56:38.036Z,8.50
2018-04-08T23:59:13.731Z,9.23
